Terminal Aerodrome Forecast
Issued by NWS Detroit/Pontiac, MI

Home | Current Version | Previous Version | Text Only | Print | Product List | Glossary On
Versions: 1 2 3 4 5 6 7 8 9 10 11 12 13 14 15 16 17 18 19 20 21 22 23 24 25 26 27 28 29 30 31 32 33
244
FTUS43 KDTX 172057 AAA
TAFDTW
TAF AMD
KDTW 172057Z 1721/1824 20009KT P6SM SCT030 OVC100
     FM180100 21010KT 5SM -SHSN BKN025 OVC035
     FM180600 28010KT P6SM BKN030
     FM181000 25005KT P6SM BKN150
     FM181400 23008KT P6SM SCT250=

USA.gov is the U.S. government's official web portal to all federal, state and local government web resources and services.